Queen Creek, AZ

2:51 AM MST on October 20, 2014 (GMT -0700)
Crismon Ranch Estates | Change Station
CLOSE
Current Station
Personal Weather Station
Location: Queen Creek, AZ
Elevation: 1417 ft
Nearby Weather Stations

Elev 1417 ft 33.26 °N, 111.62 °W | Updated 40 seconds ago

Clear
Clear
61.2 °F
Feels Like 61.2 °F
N
0.0
Wind Variable Wind from SE
Gusts 0.0 mph

Today
High -- | Low -- °F
--% Chance of Precip.
Yesterday
High -- | Low -- °F
Precip. -- in
6:34 AM 5:47 PM
Waning Crescent, 12% visible
Pressure 29.90 in
Visibility 10.0 miles
Clouds Clear
Dew Point 54 °F
Humidity 77%
Rainfall 0.00 in
Snow Depth Not available.
UV 0 out of 12
Pollen Not available.
PM2.5 Good
Flu Activity No Activity
METAR KIWA 200935Z AUTO 15003KT 10SM CLR 16/11 A2990 RMK AO2

More Conditions Fewer Conditions

Pressure 29.90 in
Visibility 10.0 miles
Clouds Clear
Dew Point 54 °F
Humidity 77%
Rainfall 0.00 in
Snow Depth Not available.
UV 0 out of 12
Pollen Not available.
PM2.5 Good
Flu Activity No Activity
METAR KIWA 200935Z AUTO 15003KT 10SM CLR 16/11 A2990 RMK AO2

More Conditions Fewer Conditions

10-Day Weather Forecast

Almanac

Astronomy

Oct. 20, 2014 Rise Set
Actual Time 6:34 AM MST 5:47 PM MST
Civil Twilight 6:09 AM MST 6:12 PM MST
Nautical Twilight 5:40 AM MST 6:41 PM MST
Astronomical Twilight 5:12 AM MST 7:09 PM MST
Moon 3:35 AM MST 4:03 PM MST
Length of Visible Light 12h 02m
Length of Day
11h 12m
Waning Crescent, 12% of the Moon is Illuminated
Today
Waning Crescent
Oct 23
New
Oct 30
First Quarter
Nov 6
Full
Nov 14
Last Quarter

Today's Extremes

State Highs State Lows

Community

WunderPhotos

Upload Photos

1,763,325 photos uploaded!

Nearby

Air Quality

  Air Quality AQ Index Pollutant
Yesterday Moderate
OZONE
Yesterday Good
PM10
Current Good
PM2.5
Monday Moderate
PM10
Monday Good
OZONE
Monday Good
CO
Tuesday Good
PM10
Tuesday Moderate
OZONE
Tuesday Good
CO

Snow Depth

Station Depth Elevation
Workman Creek 0 in 6900 ft
Baker Butte 1 in 7300 ft
Promontory 0 in 7930 ft
Happy Jack 0 in 7630 ft
Mormon Mountain 0 in 7500 ft

Earthquake Activity

City Distance Mag. Time & Date
No recent earthquake activity has been reported nearby.
Minimum magnitude displayed is 2.5.

Coastal Water Temperatures

Place Temperature
No Stations Reporting

Nearby Weather Stations